sensor_id;sensor_type;location;lat;lon;timestamp;P1;durP1;ratioP1;P2;durP2;ratioP2
57401;SDS011;43226;51.110;6.998;2023-12-14T00:01:15;19.77;;;11.13;;
57401;SDS011;43226;51.110;6.998;2023-12-14T00:03:41;26.33;;;10.80;;
57401;SDS011;43226;51.110;6.998;2023-12-14T00:06:07;22.60;;;11.63;;
57401;SDS011;43226;51.110;6.998;2023-12-14T00:08:32;30.37;;;11.77;;
57401;SDS011;43226;51.110;6.998;2023-12-14T00:11:02;24.10;;;13.03;;
57401;SDS011;43226;51.110;6.998;2023-12-14T00:13:27;21.63;;;12.63;;
57401;SDS011;43226;51.110;6.998;2023-12-14T00:15:52;26.60;;;12.90;;
57401;SDS011;43226;51.110;6.998;2023-12-14T00:18:18;21.90;;;13.00;;
57401;SDS011;43226;51.110;6.998;2023-12-14T00:20:43;24.50;;;12.83;;
57401;SDS011;43226;51.110;6.998;2023-12-14T00:23:08;23.10;;;14.10;;
57401;SDS011;43226;51.110;6.998;2023-12-14T00:25:33;31.63;;;15.37;;
57401;SDS011;43226;51.110;6.998;2023-12-14T00:27:58;24.15;;;14.13;;
57401;SDS011;43226;51.110;6.998;2023-12-14T00:30:23;24.00;;;13.27;;
57401;SDS011;43226;51.110;6.998;2023-12-14T00:32:48;23.93;;;12.93;;
57401;SDS011;43226;51.110;6.998;2023-12-14T00:35:14;30.77;;;15.43;;
57401;SDS011;43226;51.110;6.998;2023-12-14T00:37:39;37.13;;;15.83;;
57401;SDS011;43226;51.110;6.998;2023-12-14T00:40:04;30.67;;;14.70;;
57401;SDS011;43226;51.110;6.998;2023-12-14T00:42:29;33.10;;;14.73;;
57401;SDS011;43226;51.110;6.998;2023-12-14T00:44:55;31.60;;;16.70;;
57401;SDS011;43226;51.110;6.998;2023-12-14T00:47:20;25.50;;;14.20;;
57401;SDS011;43226;51.110;6.998;2023-12-14T00:49:45;31.43;;;15.30;;
57401;SDS011;43226;51.110;6.998;2023-12-14T00:52:10;31.47;;;16.10;;
57401;SDS011;43226;51.110;6.998;2023-12-14T00:54:35;31.27;;;15.47;;
57401;SDS011;43226;51.110;6.998;2023-12-14T00:57:00;32.30;;;15.83;;
57401;SDS011;43226;51.110;6.998;2023-12-14T00:59:26;35.00;;;15.63;;
57401;SDS011;43226;51.110;6.998;2023-12-14T01:01:51;34.10;;;14.20;;
57401;SDS011;43226;51.110;6.998;2023-12-14T01:04:16;34.13;;;15.97;;
57401;SDS011;43226;51.110;6.998;2023-12-14T01:06:41;36.53;;;16.63;;
57401;SDS011;43226;51.110;6.998;2023-12-14T01:09:06;30.70;;;14.70;;
57401;SDS011;43226;51.110;6.998;2023-12-14T01:11:33;32.43;;;14.90;;
57401;SDS011;43226;51.110;6.998;2023-12-14T01:13:58;30.87;;;15.20;;
57401;SDS011;43226;51.110;6.998;2023-12-14T01:16:25;31.57;;;14.67;;
57401;SDS011;43226;51.110;6.998;2023-12-14T01:18:50;36.67;;;16.00;;
57401;SDS011;43226;51.110;6.998;2023-12-14T01:21:15;36.73;;;15.60;;
57401;SDS011;43226;51.110;6.998;2023-12-14T01:23:41;35.93;;;17.30;;
57401;SDS011;43226;51.110;6.998;2023-12-14T01:26:06;37.43;;;17.20;;
57401;SDS011;43226;51.110;6.998;2023-12-14T01:28:31;32.60;;;16.10;;
57401;SDS011;43226;51.110;6.998;2023-12-14T01:30:56;37.47;;;16.47;;
57401;SDS011;43226;51.110;6.998;2023-12-14T01:33:22;44.87;;;17.20;;
57401;SDS011;43226;51.110;6.998;2023-12-14T01:35:47;35.43;;;16.10;;
57401;SDS011;43226;51.110;6.998;2023-12-14T01:38:12;38.70;;;17.10;;
57401;SDS011;43226;51.110;6.998;2023-12-14T01:40:37;47.23;;;18.10;;
57401;SDS011;43226;51.110;6.998;2023-12-14T01:43:06;40.50;;;16.60;;
57401;SDS011;43226;51.110;6.998;2023-12-14T01:45:31;38.33;;;16.20;;
57401;SDS011;43226;51.110;6.998;2023-12-14T01:47:56;42.63;;;19.83;;
57401;SDS011;43226;51.110;6.998;2023-12-14T01:50:22;42.47;;;18.37;;
57401;SDS011;43226;51.110;6.998;2023-12-14T01:52:47;47.10;;;19.07;;
57401;SDS011;43226;51.110;6.998;2023-12-14T01:55:12;51.50;;;18.00;;
57401;SDS011;43226;51.110;6.998;2023-12-14T01:57:37;48.20;;;17.20;;
57401;SDS011;43226;51.110;6.998;2023-12-14T02:00:02;42.60;;;16.67;;
57401;SDS011;43226;51.110;6.998;2023-12-14T02:02:28;42.00;;;16.03;;
57401;SDS011;43226;51.110;6.998;2023-12-14T02:04:53;51.37;;;19.20;;
57401;SDS011;43226;51.110;6.998;2023-12-14T02:07:18;40.73;;;18.07;;
57401;SDS011;43226;51.110;6.998;2023-12-14T02:09:43;43.83;;;18.10;;
57401;SDS011;43226;51.110;6.998;2023-12-14T02:12:09;60.70;;;20.00;;
57401;SDS011;43226;51.110;6.998;2023-12-14T02:14:34;45.77;;;17.70;;
57401;SDS011;43226;51.110;6.998;2023-12-14T02:16:59;44.83;;;17.17;;
57401;SDS011;43226;51.110;6.998;2023-12-14T02:19:24;41.80;;;16.93;;
57401;SDS011;43226;51.110;6.998;2023-12-14T02:21:49;36.17;;;15.63;;
57401;SDS011;43226;51.110;6.998;2023-12-14T02:24:15;37.47;;;17.00;;
57401;SDS011;43226;51.110;6.998;2023-12-14T02:26:40;34.60;;;15.57;;
57401;SDS011;43226;51.110;6.998;2023-12-14T02:29:05;35.10;;;14.90;;
57401;SDS011;43226;51.110;6.998;2023-12-14T02:31:30;36.30;;;15.20;;
57401;SDS011;43226;51.110;6.998;2023-12-14T02:33:55;40.90;;;15.17;;
57401;SDS011;43226;51.110;6.998;2023-12-14T02:36:20;33.57;;;13.93;;
57401;SDS011;43226;51.110;6.998;2023-12-14T02:38:46;36.53;;;14.97;;
57401;SDS011;43226;51.110;6.998;2023-12-14T02:41:11;35.93;;;14.83;;
57401;SDS011;43226;51.110;6.998;2023-12-14T02:43:36;34.43;;;14.83;;
57401;SDS011;43226;51.110;6.998;2023-12-14T02:46:03;29.40;;;13.90;;
57401;SDS011;43226;51.110;6.998;2023-12-14T02:48:28;30.33;;;13.50;;
57401;SDS011;43226;51.110;6.998;2023-12-14T02:50:54;29.13;;;14.50;;
57401;SDS011;43226;51.110;6.998;2023-12-14T02:53:19;36.20;;;15.40;;
57401;SDS011;43226;51.110;6.998;2023-12-14T02:55:44;42.00;;;13.80;;
57401;SDS011;43226;51.110;6.998;2023-12-14T02:58:10;31.57;;;13.03;;
57401;SDS011;43226;51.110;6.998;2023-12-14T03:00:35;24.93;;;12.80;;
57401;SDS011;43226;51.110;6.998;2023-12-14T03:03:00;26.30;;;12.67;;
57401;SDS011;43226;51.110;6.998;2023-12-14T03:05:25;26.77;;;12.90;;
57401;SDS011;43226;51.110;6.998;2023-12-14T03:07:50;29.03;;;13.70;;
57401;SDS011;43226;51.110;6.998;2023-12-14T03:10:15;29.03;;;13.50;;
57401;SDS011;43226;51.110;6.998;2023-12-14T03:12:41;38.87;;;16.43;;
57401;SDS011;43226;51.110;6.998;2023-12-14T03:15:06;27.40;;;14.50;;
57401;SDS011;43226;51.110;6.998;2023-12-14T03:17:32;31.37;;;13.73;;
57401;SDS011;43226;51.110;6.998;2023-12-14T03:19:58;24.90;;;12.83;;
57401;SDS011;43226;51.110;6.998;2023-12-14T03:22:23;31.30;;;13.97;;
57401;SDS011;43226;51.110;6.998;2023-12-14T03:24:48;27.10;;;12.67;;
57401;SDS011;43226;51.110;6.998;2023-12-14T03:27:13;23.23;;;13.23;;
57401;SDS011;43226;51.110;6.998;2023-12-14T03:29:39;21.87;;;11.60;;
57401;SDS011;43226;51.110;6.998;2023-12-14T03:32:04;20.30;;;10.07;;
57401;SDS011;43226;51.110;6.998;2023-12-14T03:34:29;16.17;;;8.40;;
57401;SDS011;43226;51.110;6.998;2023-12-14T03:36:55;19.27;;;10.10;;
57401;SDS011;43226;51.110;6.998;2023-12-14T03:39:20;19.70;;;10.17;;
57401;SDS011;43226;51.110;6.998;2023-12-14T03:41:45;20.23;;;10.10;;
57401;SDS011;43226;51.110;6.998;2023-12-14T03:44:11;16.00;;;9.50;;
57401;SDS011;43226;51.110;6.998;2023-12-14T03:46:36;14.10;;;8.83;;
57401;SDS011;43226;51.110;6.998;2023-12-14T03:49:01;15.47;;;9.07;;
57401;SDS011;43226;51.110;6.998;2023-12-14T03:51:27;20.63;;;10.00;;
57401;SDS011;43226;51.110;6.998;2023-12-14T03:53:52;19.07;;;9.50;;
57401;SDS011;43226;51.110;6.998;2023-12-14T03:56:17;14.73;;;9.37;;
57401;SDS011;43226;51.110;6.998;2023-12-14T03:58:42;14.50;;;9.07;;
57401;SDS011;43226;51.110;6.998;2023-12-14T04:01:07;16.10;;;10.20;;
57401;SDS011;43226;51.110;6.998;2023-12-14T04:03:33;19.73;;;10.80;;
57401;SDS011;43226;51.110;6.998;2023-12-14T04:05:58;21.60;;;11.80;;
57401;SDS011;43226;51.110;6.998;2023-12-14T04:08:23;19.57;;;10.97;;
57401;SDS011;43226;51.110;6.998;2023-12-14T04:10:49;20.20;;;11.13;;
57401;SDS011;43226;51.110;6.998;2023-12-14T04:13:14;21.63;;;11.60;;
57401;SDS011;43226;51.110;6.998;2023-12-14T04:15:39;22.87;;;11.73;;
57401;SDS011;43226;51.110;6.998;2023-12-14T04:18:06;28.10;;;13.00;;
57401;SDS011;43226;51.110;6.998;2023-12-14T04:20:31;27.57;;;13.70;;
57401;SDS011;43226;51.110;6.998;2023-12-14T04:22:56;28.47;;;14.43;;
57401;SDS011;43226;51.110;6.998;2023-12-14T04:25:22;29.67;;;14.73;;
57401;SDS011;43226;51.110;6.998;2023-12-14T04:27:47;32.33;;;16.30;;
57401;SDS011;43226;51.110;6.998;2023-12-14T04:30:12;34.73;;;15.47;;
57401;SDS011;43226;51.110;6.998;2023-12-14T04:32:38;31.83;;;15.60;;
57401;SDS011;43226;51.110;6.998;2023-12-14T04:35:03;39.70;;;19.53;;
57401;SDS011;43226;51.110;6.998;2023-12-14T04:37:29;40.33;;;18.43;;
57401;SDS011;43226;51.110;6.998;2023-12-14T04:39:55;42.27;;;17.30;;
57401;SDS011;43226;51.110;6.998;2023-12-14T04:42:20;36.93;;;18.47;;
57401;SDS011;43226;51.110;6.998;2023-12-14T04:44:45;38.37;;;18.13;;
57401;SDS011;43226;51.110;6.998;2023-12-14T04:47:10;44.80;;;19.43;;
57401;SDS011;43226;51.110;6.998;2023-12-14T04:49:36;41.47;;;18.53;;
57401;SDS011;43226;51.110;6.998;2023-12-14T04:52:01;44.03;;;18.60;;
57401;SDS011;43226;51.110;6.998;2023-12-14T04:54:26;40.50;;;18.57;;
57401;SDS011;43226;51.110;6.998;2023-12-14T04:56:51;42.40;;;17.80;;
57401;SDS011;43226;51.110;6.998;2023-12-14T04:59:16;43.20;;;18.93;;
57401;SDS011;43226;51.110;6.998;2023-12-14T05:01:41;38.63;;;19.37;;
57401;SDS011;43226;51.110;6.998;2023-12-14T05:04:07;42.73;;;18.63;;
57401;SDS011;43226;51.110;6.998;2023-12-14T05:06:32;36.43;;;18.00;;
57401;SDS011;43226;51.110;6.998;2023-12-14T05:08:58;38.60;;;18.07;;
57401;SDS011;43226;51.110;6.998;2023-12-14T05:11:24;47.30;;;20.67;;
57401;SDS011;43226;51.110;6.998;2023-12-14T05:13:49;52.23;;;19.07;;
57401;SDS011;43226;51.110;6.998;2023-12-14T05:16:14;44.23;;;19.07;;
57401;SDS011;43226;51.110;6.998;2023-12-14T05:18:39;47.27;;;21.30;;
57401;SDS011;43226;51.110;6.998;2023-12-14T05:21:05;49.30;;;20.20;;
57401;SDS011;43226;51.110;6.998;2023-12-14T05:23:30;40.27;;;19.43;;
57401;SDS011;43226;51.110;6.998;2023-12-14T05:25:55;46.60;;;20.27;;
57401;SDS011;43226;51.110;6.998;2023-12-14T05:28:20;48.80;;;21.20;;
57401;SDS011;43226;51.110;6.998;2023-12-14T05:30:45;56.07;;;20.30;;
57401;SDS011;43226;51.110;6.998;2023-12-14T05:33:10;61.40;;;22.17;;
57401;SDS011;43226;51.110;6.998;2023-12-14T05:35:36;52.43;;;19.67;;
57401;SDS011;43226;51.110;6.998;2023-12-14T05:38:01;42.90;;;19.83;;
57401;SDS011;43226;51.110;6.998;2023-12-14T05:40:26;45.03;;;17.77;;
57401;SDS011;43226;51.110;6.998;2023-12-14T05:42:51;46.20;;;19.13;;
57401;SDS011;43226;51.110;6.998;2023-12-14T05:45:16;49.50;;;18.90;;
57401;SDS011;43226;51.110;6.998;2023-12-14T05:47:43;44.67;;;19.83;;
57401;SDS011;43226;51.110;6.998;2023-12-14T05:50:08;43.27;;;18.80;;
57401;SDS011;43226;51.110;6.998;2023-12-14T05:52:35;47.30;;;18.50;;
57401;SDS011;43226;51.110;6.998;2023-12-14T05:55:00;40.23;;;17.10;;
57401;SDS011;43226;51.110;6.998;2023-12-14T05:57:25;53.83;;;19.13;;
57401;SDS011;43226;51.110;6.998;2023-12-14T05:59:51;40.60;;;18.40;;
57401;SDS011;43226;51.110;6.998;2023-12-14T06:02:16;34.90;;;15.77;;
57401;SDS011;43226;51.110;6.998;2023-12-14T06:04:41;36.60;;;16.30;;
57401;SDS011;43226;51.110;6.998;2023-12-14T06:07:06;38.80;;;17.10;;
57401;SDS011;43226;51.110;6.998;2023-12-14T06:09:32;35.73;;;16.30;;
57401;SDS011;43226;51.110;6.998;2023-12-14T06:12:00;42.67;;;16.70;;
57401;SDS011;43226;51.110;6.998;2023-12-14T06:14:26;31.30;;;15.77;;
57401;SDS011;43226;51.110;6.998;2023-12-14T06:16:51;36.13;;;14.70;;
57401;SDS011;43226;51.110;6.998;2023-12-14T06:19:16;34.27;;;15.17;;
57401;SDS011;43226;51.110;6.998;2023-12-14T06:21:42;29.77;;;13.60;;
57401;SDS011;43226;51.110;6.998;2023-12-14T06:24:07;31.00;;;14.53;;
57401;SDS011;43226;51.110;6.998;2023-12-14T06:26:32;29.87;;;13.23;;
57401;SDS011;43226;51.110;6.998;2023-12-14T06:28:57;29.23;;;13.57;;
57401;SDS011;43226;51.110;6.998;2023-12-14T06:31:22;27.07;;;12.93;;
57401;SDS011;43226;51.110;6.998;2023-12-14T06:33:48;29.93;;;15.07;;
57401;SDS011;43226;51.110;6.998;2023-12-14T06:36:15;30.03;;;13.80;;
57401;SDS011;43226;51.110;6.998;2023-12-14T06:38:40;26.10;;;13.67;;
57401;SDS011;43226;51.110;6.998;2023-12-14T06:41:06;36.03;;;15.33;;
57401;SDS011;43226;51.110;6.998;2023-12-14T06:43:31;30.63;;;13.00;;
57401;SDS011;43226;51.110;6.998;2023-12-14T06:45:56;29.10;;;13.03;;
57401;SDS011;43226;51.110;6.998;2023-12-14T06:48:22;28.67;;;13.17;;
57401;SDS011;43226;51.110;6.998;2023-12-14T06:50:47;35.60;;;16.30;;
57401;SDS011;43226;51.110;6.998;2023-12-14T06:53:12;38.67;;;14.53;;
57401;SDS011;43226;51.110;6.998;2023-12-14T06:55:37;35.57;;;15.70;;
57401;SDS011;43226;51.110;6.998;2023-12-14T06:58:02;41.10;;;17.30;;
57401;SDS011;43226;51.110;6.998;2023-12-14T07:00:27;44.30;;;17.03;;
57401;SDS011;43226;51.110;6.998;2023-12-14T07:02:54;35.37;;;16.63;;
57401;SDS011;43226;51.110;6.998;2023-12-14T07:05:19;37.37;;;17.40;;
57401;SDS011;43226;51.110;6.998;2023-12-14T07:07:44;40.63;;;17.63;;
57401;SDS011;43226;51.110;6.998;2023-12-14T07:10:09;36.47;;;17.23;;
57401;SDS011;43226;51.110;6.998;2023-12-14T07:12:35;34.33;;;16.67;;
57401;SDS011;43226;51.110;6.998;2023-12-14T07:15:00;35.23;;;17.00;;
57401;SDS011;43226;51.110;6.998;2023-12-14T07:17:25;32.90;;;14.07;;
57401;SDS011;43226;51.110;6.998;2023-12-14T07:19:51;36.93;;;15.30;;
57401;SDS011;43226;51.110;6.998;2023-12-14T07:22:16;33.57;;;16.13;;
57401;SDS011;43226;51.110;6.998;2023-12-14T07:24:41;33.60;;;15.03;;
57401;SDS011;43226;51.110;6.998;2023-12-14T07:27:06;34.37;;;16.77;;
57401;SDS011;43226;51.110;6.998;2023-12-14T07:29:32;33.33;;;14.10;;
57401;SDS011;43226;51.110;6.998;2023-12-14T07:31:57;31.73;;;14.47;;
57401;SDS011;43226;51.110;6.998;2023-12-14T07:34:22;42.13;;;15.10;;
57401;SDS011;43226;51.110;6.998;2023-12-14T07:36:49;42.80;;;16.90;;
57401;SDS011;43226;51.110;6.998;2023-12-14T07:39:15;28.50;;;13.67;;
57401;SDS011;43226;51.110;6.998;2023-12-14T07:41:40;39.53;;;15.30;;
57401;SDS011;43226;51.110;6.998;2023-12-14T07:44:05;31.63;;;12.90;;
57401;SDS011;43226;51.110;6.998;2023-12-14T07:46:30;26.77;;;13.70;;
57401;SDS011;43226;51.110;6.998;2023-12-14T07:48:55;29.77;;;11.77;;
57401;SDS011;43226;51.110;6.998;2023-12-14T07:51:21;24.50;;;11.30;;
57401;SDS011;43226;51.110;6.998;2023-12-14T07:53:46;32.23;;;12.90;;
57401;SDS011;43226;51.110;6.998;2023-12-14T07:56:11;27.97;;;12.37;;
57401;SDS011;43226;51.110;6.998;2023-12-14T07:58:37;23.63;;;11.83;;
57401;SDS011;43226;51.110;6.998;2023-12-14T08:01:02;28.93;;;12.20;;
57401;SDS011;43226;51.110;6.998;2023-12-14T08:03:27;31.33;;;11.47;;
57401;SDS011;43226;51.110;6.998;2023-12-14T08:05:52;28.73;;;11.83;;
57401;SDS011;43226;51.110;6.998;2023-12-14T08:08:18;28.23;;;11.37;;
57401;SDS011;43226;51.110;6.998;2023-12-14T08:10:43;33.33;;;11.70;;
57401;SDS011;43226;51.110;6.998;2023-12-14T08:13:08;22.70;;;10.80;;
57401;SDS011;43226;51.110;6.998;2023-12-14T08:15:33;22.83;;;11.33;;
57401;SDS011;43226;51.110;6.998;2023-12-14T08:17:58;23.57;;;11.23;;
57401;SDS011;43226;51.110;6.998;2023-12-14T08:20:23;28.37;;;12.83;;
57401;SDS011;43226;51.110;6.998;2023-12-14T08:22:49;28.13;;;12.47;;
57401;SDS011;43226;51.110;6.998;2023-12-14T08:25:14;35.67;;;13.67;;
57401;SDS011;43226;51.110;6.998;2023-12-14T08:27:40;31.87;;;14.07;;
57401;SDS011;43226;51.110;6.998;2023-12-14T08:30:05;45.63;;;18.40;;
57401;SDS011;43226;51.110;6.998;2023-12-14T08:32:30;42.10;;;16.27;;
57401;SDS011;43226;51.110;6.998;2023-12-14T08:34:56;40.77;;;16.80;;
57401;SDS011;43226;51.110;6.998;2023-12-14T08:37:21;46.67;;;16.60;;
57401;SDS011;43226;51.110;6.998;2023-12-14T08:39:46;43.13;;;14.80;;
57401;SDS011;43226;51.110;6.998;2023-12-14T08:42:11;44.93;;;18.30;;
57401;SDS011;43226;51.110;6.998;2023-12-14T08:44:38;40.80;;;17.00;;
57401;SDS011;43226;51.110;6.998;2023-12-14T08:47:03;44.30;;;17.00;;
57401;SDS011;43226;51.110;6.998;2023-12-14T08:49:29;44.80;;;18.40;;
57401;SDS011;43226;51.110;6.998;2023-12-14T08:51:54;40.37;;;16.70;;
57401;SDS011;43226;51.110;6.998;2023-12-14T08:54:20;46.87;;;16.83;;
57401;SDS011;43226;51.110;6.998;2023-12-14T08:56:45;35.70;;;16.50;;
57401;SDS011;43226;51.110;6.998;2023-12-14T08:59:10;43.77;;;17.80;;
57401;SDS011;43226;51.110;6.998;2023-12-14T09:01:35;47.07;;;14.80;;
57401;SDS011;43226;51.110;6.998;2023-12-14T09:04:00;40.67;;;15.87;;
57401;SDS011;43226;51.110;6.998;2023-12-14T09:06:26;48.57;;;16.57;;
57401;SDS011;43226;51.110;6.998;2023-12-14T09:08:51;35.00;;;14.10;;
57401;SDS011;43226;51.110;6.998;2023-12-14T09:11:16;41.73;;;15.10;;
57401;SDS011;43226;51.110;6.998;2023-12-14T09:13:41;42.57;;;16.70;;
57401;SDS011;43226;51.110;6.998;2023-12-14T09:16:07;42.60;;;15.67;;
57401;SDS011;43226;51.110;6.998;2023-12-14T09:18:32;42.50;;;15.37;;
57401;SDS011;43226;51.110;6.998;2023-12-14T09:20:57;39.23;;;18.00;;
57401;SDS011;43226;51.110;6.998;2023-12-14T09:23:23;39.87;;;16.90;;
57401;SDS011;43226;51.110;6.998;2023-12-14T09:25:48;44.13;;;18.10;;
57401;SDS011;43226;51.110;6.998;2023-12-14T09:28:14;59.67;;;20.00;;
57401;SDS011;43226;51.110;6.998;2023-12-14T09:30:39;55.23;;;19.50;;
57401;SDS011;43226;51.110;6.998;2023-12-14T09:33:05;49.43;;;19.80;;
57401;SDS011;43226;51.110;6.998;2023-12-14T09:35:33;64.00;;;22.67;;
57401;SDS011;43226;51.110;6.998;2023-12-14T09:37:58;53.83;;;21.07;;
57401;SDS011;43226;51.110;6.998;2023-12-14T09:40:23;54.17;;;21.97;;
57401;SDS011;43226;51.110;6.998;2023-12-14T09:42:49;56.00;;;21.97;;
57401;SDS011;43226;51.110;6.998;2023-12-14T09:45:14;46.83;;;18.50;;
57401;SDS011;43226;51.110;6.998;2023-12-14T09:47:41;47.00;;;19.07;;
57401;SDS011;43226;51.110;6.998;2023-12-14T09:50:06;54.47;;;22.50;;
57401;SDS011;43226;51.110;6.998;2023-12-14T09:52:32;45.73;;;19.00;;
57401;SDS011;43226;51.110;6.998;2023-12-14T09:54:58;50.87;;;20.60;;
57401;SDS011;43226;51.110;6.998;2023-12-14T09:57:24;52.60;;;19.87;;
57401;SDS011;43226;51.110;6.998;2023-12-14T09:59:51;41.23;;;18.50;;
57401;SDS011;43226;51.110;6.998;2023-12-14T10:02:16;42.57;;;17.43;;
57401;SDS011;43226;51.110;6.998;2023-12-14T10:04:42;43.87;;;19.40;;
57401;SDS011;43226;51.110;6.998;2023-12-14T10:07:08;49.00;;;20.10;;
57401;SDS011;43226;51.110;6.998;2023-12-14T10:09:33;50.23;;;19.40;;
57401;SDS011;43226;51.110;6.998;2023-12-14T10:12:05;53.97;;;21.33;;
57401;SDS011;43226;51.110;6.998;2023-12-14T10:14:30;51.83;;;22.10;;
57401;SDS011;43226;51.110;6.998;2023-12-14T10:16:56;44.17;;;19.60;;
57401;SDS011;43226;51.110;6.998;2023-12-14T10:19:21;55.17;;;20.80;;
57401;SDS011;43226;51.110;6.998;2023-12-14T10:21:46;61.90;;;22.87;;
57401;SDS011;43226;51.110;6.998;2023-12-14T10:24:12;54.47;;;23.57;;
57401;SDS011;43226;51.110;6.998;2023-12-14T10:26:37;46.53;;;21.10;;
57401;SDS011;43226;51.110;6.998;2023-12-14T10:29:03;45.77;;;19.37;;
57401;SDS011;43226;51.110;6.998;2023-12-14T10:31:30;45.27;;;18.00;;
57401;SDS011;43226;51.110;6.998;2023-12-14T10:33:55;52.00;;;20.53;;
57401;SDS011;43226;51.110;6.998;2023-12-14T10:36:21;44.43;;;17.70;;
57401;SDS011;43226;51.110;6.998;2023-12-14T10:38:49;43.73;;;19.67;;
57401;SDS011;43226;51.110;6.998;2023-12-14T10:41:16;42.60;;;18.47;;
57401;SDS011;43226;51.110;6.998;2023-12-14T10:43:43;43.73;;;18.47;;
57401;SDS011;43226;51.110;6.998;2023-12-14T10:46:09;46.87;;;17.07;;
57401;SDS011;43226;51.110;6.998;2023-12-14T10:48:35;45.97;;;16.63;;
57401;SDS011;43226;51.110;6.998;2023-12-14T10:51:02;41.30;;;17.60;;
57401;SDS011;43226;51.110;6.998;2023-12-14T10:53:27;34.33;;;15.03;;
57401;SDS011;43226;51.110;6.998;2023-12-14T10:55:53;32.97;;;15.40;;
57401;SDS011;43226;51.110;6.998;2023-12-14T10:58:19;36.23;;;14.87;;
57401;SDS011;43226;51.110;6.998;2023-12-14T11:00:46;33.53;;;15.17;;
57401;SDS011;43226;51.110;6.998;2023-12-14T11:03:22;34.17;;;14.80;;
57401;SDS011;43226;51.110;6.998;2023-12-14T11:05:47;36.80;;;16.10;;
57401;SDS011;43226;51.110;6.998;2023-12-14T11:08:12;38.83;;;16.30;;
57401;SDS011;43226;51.110;6.998;2023-12-14T11:10:40;33.50;;;15.43;;
57401;SDS011;43226;51.110;6.998;2023-12-14T11:13:06;42.07;;;15.23;;
57401;SDS011;43226;51.110;6.998;2023-12-14T11:15:35;30.53;;;13.90;;
57401;SDS011;43226;51.110;6.998;2023-12-14T11:23:16;31.97;;;16.37;;
57401;SDS011;43226;51.110;6.998;2023-12-14T11:25:47;30.83;;;15.30;;
57401;SDS011;43226;51.110;6.998;2023-12-14T11:28:13;33.20;;;15.97;;
57401;SDS011;43226;51.110;6.998;2023-12-14T11:30:38;31.80;;;15.63;;
57401;SDS011;43226;51.110;6.998;2023-12-14T11:33:03;35.57;;;16.47;;
57401;SDS011;43226;51.110;6.998;2023-12-14T11:35:29;34.47;;;16.40;;
57401;SDS011;43226;51.110;6.998;2023-12-14T11:37:54;37.00;;;17.90;;
57401;SDS011;43226;51.110;6.998;2023-12-14T11:40:22;36.50;;;17.00;;
57401;SDS011;43226;51.110;6.998;2023-12-14T11:42:57;26.03;;;13.90;;
57401;SDS011;43226;51.110;6.998;2023-12-14T11:45:23;35.33;;;15.97;;
57401;SDS011;43226;51.110;6.998;2023-12-14T11:47:48;33.00;;;16.00;;
57401;SDS011;43226;51.110;6.998;2023-12-14T11:50:13;31.70;;;15.67;;
57401;SDS011;43226;51.110;6.998;2023-12-14T11:52:39;31.07;;;14.17;;
57401;SDS011;43226;51.110;6.998;2023-12-14T11:55:04;32.40;;;15.43;;
57401;SDS011;43226;51.110;6.998;2023-12-14T11:57:29;37.10;;;14.67;;
57401;SDS011;43226;51.110;6.998;2023-12-14T11:59:54;34.63;;;15.20;;
57401;SDS011;43226;51.110;6.998;2023-12-14T12:02:23;31.20;;;14.43;;
57401;SDS011;43226;51.110;6.998;2023-12-14T12:04:51;29.30;;;13.43;;
57401;SDS011;43226;51.110;6.998;2023-12-14T12:07:17;28.77;;;13.23;;
57401;SDS011;43226;51.110;6.998;2023-12-14T12:09:42;31.33;;;15.02;;
57401;SDS011;43226;51.110;6.998;2023-12-14T12:12:08;33.17;;;14.10;;
57401;SDS011;43226;51.110;6.998;2023-12-14T12:14:34;30.43;;;12.20;;
57401;SDS011;43226;51.110;6.998;2023-12-14T12:16:59;28.17;;;14.00;;
57401;SDS011;43226;51.110;6.998;2023-12-14T12:19:25;29.37;;;13.93;;
57401;SDS011;43226;51.110;6.998;2023-12-14T12:21:50;29.87;;;12.23;;
57401;SDS011;43226;51.110;6.998;2023-12-14T12:24:15;29.97;;;14.90;;
57401;SDS011;43226;51.110;6.998;2023-12-14T12:26:40;25.90;;;12.87;;
57401;SDS011;43226;51.110;6.998;2023-12-14T12:29:05;26.53;;;12.47;;
57401;SDS011;43226;51.110;6.998;2023-12-14T12:31:31;27.10;;;13.40;;
57401;SDS011;43226;51.110;6.998;2023-12-14T12:33:56;29.67;;;13.20;;
57401;SDS011;43226;51.110;6.998;2023-12-14T12:36:21;28.07;;;12.90;;
57401;SDS011;43226;51.110;6.998;2023-12-14T12:38:47;22.43;;;12.40;;
57401;SDS011;43226;51.110;6.998;2023-12-14T12:41:12;32.00;;;18.13;;
57401;SDS011;43226;51.110;6.998;2023-12-14T12:43:37;25.43;;;13.30;;
57401;SDS011;43226;51.110;6.998;2023-12-14T12:46:02;26.70;;;14.23;;
57401;SDS011;43226;51.110;6.998;2023-12-14T12:48:28;22.87;;;11.80;;
57401;SDS011;43226;51.110;6.998;2023-12-14T12:50:53;26.57;;;13.63;;
57401;SDS011;43226;51.110;6.998;2023-12-14T12:53:18;25.40;;;13.37;;
57401;SDS011;43226;51.110;6.998;2023-12-14T12:55:43;31.17;;;15.03;;
57401;SDS011;43226;51.110;6.998;2023-12-14T12:58:09;24.43;;;13.33;;
57401;SDS011;43226;51.110;6.998;2023-12-14T13:00:34;24.53;;;12.70;;
57401;SDS011;43226;51.110;6.998;2023-12-14T13:03:01;22.93;;;13.07;;
57401;SDS011;43226;51.110;6.998;2023-12-14T13:05:27;26.10;;;13.20;;
57401;SDS011;43226;51.110;6.998;2023-12-14T13:07:52;21.10;;;11.63;;
57401;SDS011;43226;51.110;6.998;2023-12-14T13:10:19;21.80;;;11.17;;
57401;SDS011;43226;51.110;6.998;2023-12-14T13:12:47;32.83;;;13.60;;
57401;SDS011;43226;51.110;6.998;2023-12-14T13:15:12;21.87;;;12.30;;
57401;SDS011;43226;51.110;6.998;2023-12-14T13:17:37;24.50;;;11.53;;
57401;SDS011;43226;51.110;6.998;2023-12-14T13:20:03;23.13;;;11.20;;
57401;SDS011;43226;51.110;6.998;2023-12-14T13:22:28;22.40;;;11.37;;
57401;SDS011;43226;51.110;6.998;2023-12-14T13:24:53;26.63;;;14.00;;
57401;SDS011;43226;51.110;6.998;2023-12-14T13:27:19;20.80;;;10.43;;
57401;SDS011;43226;51.110;6.998;2023-12-14T13:29:44;14.93;;;9.13;;
57401;SDS011;43226;51.110;6.998;2023-12-14T13:32:10;18.97;;;9.40;;
57401;SDS011;43226;51.110;6.998;2023-12-14T13:34:35;18.30;;;10.00;;
57401;SDS011;43226;51.110;6.998;2023-12-14T13:37:01;20.23;;;9.77;;
57401;SDS011;43226;51.110;6.998;2023-12-14T13:39:27;17.87;;;8.33;;
57401;SDS011;43226;51.110;6.998;2023-12-14T13:41:53;19.20;;;8.47;;
57401;SDS011;43226;51.110;6.998;2023-12-14T13:44:18;13.40;;;7.87;;
57401;SDS011;43226;51.110;6.998;2023-12-14T13:46:43;11.77;;;7.23;;
57401;SDS011;43226;51.110;6.998;2023-12-14T13:49:08;10.70;;;6.80;;
57401;SDS011;43226;51.110;6.998;2023-12-14T13:51:35;11.20;;;6.57;;
57401;SDS011;43226;51.110;6.998;2023-12-14T13:54:00;11.10;;;6.23;;
57401;SDS011;43226;51.110;6.998;2023-12-14T13:56:25;11.30;;;5.53;;
57401;SDS011;43226;51.110;6.998;2023-12-14T13:58:51;12.53;;;6.13;;
57401;SDS011;43226;51.110;6.998;2023-12-14T14:01:16;10.60;;;5.77;;
57401;SDS011;43226;51.110;6.998;2023-12-14T14:03:41;9.50;;;5.40;;
57401;SDS011;43226;51.110;6.998;2023-12-14T14:06:07;9.57;;;5.60;;
57401;SDS011;43226;51.110;6.998;2023-12-14T14:08:32;8.20;;;4.40;;
57401;SDS011;43226;51.110;6.998;2023-12-14T14:11:00;9.30;;;5.20;;
57401;SDS011;43226;51.110;6.998;2023-12-14T14:13:26;13.73;;;5.83;;
57401;SDS011;43226;51.110;6.998;2023-12-14T14:15:51;8.20;;;4.70;;
57401;SDS011;43226;51.110;6.998;2023-12-14T14:18:16;9.40;;;5.63;;